createdAt,value
2019-05-02T00:02:01.047Z,75.90
2019-05-02T00:04:33.427Z,75.80
2019-05-02T00:07:07.354Z,75.70
2019-05-02T00:09:48.276Z,75.80
2019-05-02T00:15:38.312Z,75.10
2019-05-02T00:18:11.682Z,75.20
2019-05-02T00:20:43.525Z,75.40
2019-05-02T00:23:22.876Z,75.50
2019-05-02T00:25:52.609Z,74.60
2019-05-02T00:28:25.004Z,74.80
2019-05-02T00:33:55.140Z,75.00
2019-05-02T00:36:25.851Z,74.70
2019-05-02T00:38:56.675Z,75.20
2019-05-02T00:41:27.070Z,75.20
2019-05-02T00:44:17.939Z,75.10
2019-05-02T00:46:48.659Z,74.70
2019-05-02T00:49:19.355Z,75.30
2019-05-02T00:51:50.346Z,75.00
2019-05-02T00:54:24.362Z,74.40
2019-05-02T00:56:53.275Z,74.50
2019-05-02T00:59:24.152Z,74.60
2019-05-02T01:02:00.072Z,74.00
2019-05-02T01:04:30.203Z,73.70
2019-05-02T01:07:00.899Z,72.70
2019-05-02T01:09:32.756Z,73.00
2019-05-02T01:12:08.428Z,72.10
2019-05-02T01:14:36.870Z,72.80
2019-05-02T01:17:07.692Z,72.70
2019-05-02T01:19:38.321Z,72.50
2019-05-02T01:22:10.412Z,72.00
2019-05-02T01:24:41.740Z,72.30
2019-05-02T01:27:36.063Z,72.40
2019-05-02T01:30:12.537Z,72.10
2019-05-02T01:32:53.600Z,72.60
2019-05-02T01:35:26.994Z,72.10
2019-05-02T01:38:15.831Z,72.00
2019-05-02T01:40:52.598Z,71.60
2019-05-02T01:43:24.179Z,71.60
2019-05-02T01:45:55.144Z,71.40
2019-05-02T01:48:26.380Z,71.60
2019-05-02T01:50:57.414Z,71.60
2019-05-02T01:53:29.312Z,71.70
2019-05-02T01:56:00.595Z,71.50
2019-05-02T01:58:31.312Z,70.90
2019-05-02T02:01:02.205Z,71.10
2019-05-02T02:03:32.851Z,70.00
2019-05-02T02:06:07.949Z,69.80
2019-05-02T02:08:36.366Z,69.10
2019-05-02T02:11:09.236Z,69.30
2019-05-02T02:13:40.076Z,69.60
2019-05-02T02:16:10.819Z,68.30
2019-05-02T02:18:49.107Z,68.50
2019-05-02T02:21:33.022Z,68.30
2019-05-02T02:24:21.223Z,67.90
2019-05-02T02:26:53.072Z,66.30
2019-05-02T02:29:23.973Z,66.10
2019-05-02T02:31:54.643Z,65.20
2019-05-02T02:34:29.069Z,64.80
2019-05-02T02:36:57.727Z,63.50
2019-05-02T02:39:28.406Z,63.70
2019-05-02T02:41:59.169Z,64.10
2019-05-02T02:44:41.863Z,64.90
2019-05-02T02:47:18.988Z,64.30
2019-05-02T02:49:45.191Z,63.50
2019-05-02T02:52:15.874Z,63.70
2019-05-02T02:54:46.559Z,63.30
2019-05-02T02:57:25.830Z,63.50
2019-05-02T02:59:49.609Z,63.50
2019-05-02T03:02:20.665Z,62.50
2019-05-02T03:04:51.620Z,62.40
2019-05-02T03:07:33.328Z,62.60
2019-05-02T03:10:06.230Z,62.30
2019-05-02T03:12:46.781Z,61.90
2019-05-02T03:15:21.047Z,61.70
2019-05-02T03:18:02.548Z,61.50
2019-05-02T03:20:39.529Z,61.10
2019-05-02T03:23:05.111Z,61.20
2019-05-02T03:25:49.846Z,61.40
2019-05-02T03:28:17.885Z,61.00
2019-05-02T03:30:39.925Z,60.60
2019-05-02T03:33:12.133Z,60.90
2019-05-02T03:35:48.385Z,59.70
2019-05-02T03:38:14.400Z,60.00
2019-05-02T03:40:44.808Z,59.90
2019-05-02T03:43:19.249Z,59.90
2019-05-02T03:45:47.296Z,59.80
2019-05-02T03:48:18.165Z,59.80
2019-05-02T03:50:50.502Z,59.50
2019-05-02T03:53:24.954Z,59.30
2019-05-02T03:55:54.070Z,59.00
2019-05-02T03:58:24.757Z,60.00
2019-05-02T04:01:01.345Z,59.70
2019-05-02T04:03:33.804Z,59.70
2019-05-02T04:05:59.633Z,59.30
2019-05-02T04:08:30.716Z,59.30
2019-05-02T04:11:18.669Z,59.70
2019-05-02T04:13:49.503Z,59.00
2019-05-02T04:16:20.202Z,58.40
2019-05-02T04:18:55.764Z,59.00
2019-05-02T04:21:25.941Z,59.30
2019-05-02T04:24:07.596Z,58.50
2019-05-02T04:26:27.740Z,58.30
2019-05-02T04:28:58.721Z,58.20
2019-05-02T04:31:31.400Z,57.50
2019-05-02T04:34:01.401Z,57.60
2019-05-02T04:36:31.873Z,57.60
2019-05-02T04:39:05.654Z,57.40
2019-05-02T04:41:34.477Z,57.80
2019-05-02T04:44:05.072Z,57.40
2019-05-02T04:46:38.581Z,57.00
2019-05-02T04:49:09.163Z,55.50
2019-05-02T04:51:39.396Z,54.60
2019-05-02T04:54:21.392Z,54.90
2019-05-02T04:56:49.542Z,55.60
2019-05-02T04:59:17.921Z,55.80
2019-05-02T05:01:52.589Z,55.10
2019-05-02T05:04:18.025Z,55.80
2019-05-02T05:06:56.229Z,56.00
2019-05-02T05:12:38.072Z,55.50
2019-05-02T05:15:13.388Z,56.10
2019-05-02T05:17:40.928Z,54.50
2019-05-02T05:20:15.496Z,54.90
2019-05-02T05:25:17.767Z,55.50
2019-05-02T05:30:15.649Z,53.90
2019-05-02T05:32:45.108Z,55.40
2019-05-02T05:35:17.566Z,54.90
2019-05-02T05:37:51.526Z,53.40
2019-05-02T05:40:22.657Z,53.40
2019-05-02T05:42:51.461Z,53.30
2019-05-02T05:45:21.848Z,52.40
2019-05-02T05:47:56.868Z,51.80
2019-05-02T05:50:24.547Z,51.00
2019-05-02T05:52:55.245Z,51.60
2019-05-02T05:55:28.016Z,51.70
2019-05-02T05:58:01.371Z,51.10
2019-05-02T06:00:30.009Z,51.50
2019-05-02T06:03:10.299Z,51.20
2019-05-02T06:05:33.271Z,51.70
2019-05-02T06:08:04.603Z,53.00
2019-05-02T06:10:39.026Z,53.70
2019-05-02T06:13:10.883Z,53.40
2019-05-02T06:15:40.371Z,53.30
2019-05-02T06:18:10.994Z,54.20
2019-05-02T06:20:41.468Z,54.00
2019-05-02T06:23:12.008Z,54.80
2019-05-02T06:25:42.878Z,55.30
2019-05-02T06:28:13.488Z,54.90
2019-05-02T06:30:44.543Z,55.40
2019-05-02T06:33:14.930Z,54.70
2019-05-02T06:35:45.331Z,54.90
2019-05-02T06:38:16.154Z,55.40
2019-05-02T06:40:46.681Z,55.50
2019-05-02T06:43:17.586Z,56.50
2019-05-02T06:45:48.439Z,56.80
2019-05-02T06:48:19.094Z,56.50
2019-05-02T06:50:49.614Z,56.20
2019-05-02T06:53:20.178Z,56.10
2019-05-02T06:55:50.580Z,56.50
2019-05-02T06:58:20.973Z,56.50
2019-05-02T07:00:58.152Z,57.00
2019-05-02T07:03:23.423Z,55.90
2019-05-02T07:05:58.552Z,56.20
2019-05-02T07:08:25.847Z,55.30
2019-05-02T07:11:01.128Z,55.80
2019-05-02T07:13:28.650Z,55.50
2019-05-02T07:16:03.315Z,55.20
2019-05-02T07:18:42.091Z,55.30
2019-05-02T07:21:17.794Z,55.50
2019-05-02T07:23:48.563Z,55.10
2019-05-02T07:26:22.910Z,54.90
2019-05-02T07:28:50.967Z,55.00
2019-05-02T07:31:21.400Z,54.90
2019-05-02T07:33:52.338Z,54.40
2019-05-02T07:36:22.736Z,54.80
2019-05-02T07:38:57.525Z,54.30
2019-05-02T07:41:29.070Z,54.90
2019-05-02T07:43:57.536Z,55.30
2019-05-02T07:46:28.134Z,54.80
2019-05-02T07:48:58.694Z,55.20
2019-05-02T07:51:29.082Z,55.40
2019-05-02T07:53:59.471Z,55.00
2019-05-02T07:56:30.012Z,55.20
2019-05-02T07:59:00.386Z,55.20
2019-05-02T08:01:30.778Z,54.10
2019-05-02T08:04:04.432Z,54.60
2019-05-02T08:06:35.407Z,54.40
2019-05-02T08:09:07.230Z,53.90
2019-05-02T08:11:38.561Z,53.80
2019-05-02T08:14:09.922Z,53.20
2019-05-02T08:16:40.825Z,53.60
2019-05-02T08:19:11.230Z,54.20
2019-05-02T08:21:41.632Z,53.90
2019-05-02T08:24:12.482Z,54.10
2019-05-02T08:26:44.368Z,54.40
2019-05-02T08:29:14.976Z,54.00
2019-05-02T08:31:45.533Z,54.00
2019-05-02T08:34:17.405Z,53.00
2019-05-02T08:36:48.349Z,52.80
2019-05-02T08:39:18.896Z,53.30
2019-05-02T08:41:51.191Z,53.30
2019-05-02T08:44:21.526Z,53.60
2019-05-02T08:46:53.312Z,53.70
2019-05-02T08:49:23.958Z,53.60
2019-05-02T08:51:54.747Z,54.70
2019-05-02T08:54:28.065Z,54.80
2019-05-02T08:56:58.897Z,54.90
2019-05-02T08:59:29.474Z,55.40
2019-05-02T09:01:59.866Z,55.60
2019-05-02T09:04:30.810Z,55.40
2019-05-02T09:07:01.717Z,55.40
2019-05-02T09:09:32.964Z,55.10
2019-05-02T09:12:12.230Z,55.40
2019-05-02T09:14:37.431Z,55.00
2019-05-02T09:17:13.571Z,56.70
2019-05-02T09:20:03.486Z,57.50
2019-05-02T09:22:32.770Z,57.90
2019-05-02T09:25:03.689Z,57.80
2019-05-02T09:27:34.349Z,57.60
2019-05-02T09:30:06.442Z,58.00
2019-05-02T09:32:37.366Z,58.80
2019-05-02T09:35:11.782Z,59.70
2019-05-02T09:37:43.239Z,60.00
2019-05-02T09:40:16.643Z,60.50
2019-05-02T09:42:47.618Z,60.20
2019-05-02T09:45:19.757Z,60.70
2019-05-02T09:47:57.263Z,60.70
2019-05-02T09:50:29.670Z,61.40
2019-05-02T09:52:54.541Z,61.50
2019-05-02T09:55:25.501Z,62.00
2019-05-02T09:57:56.215Z,62.30
2019-05-02T10:00:36.270Z,62.60
2019-05-02T10:03:05.525Z,62.60
2019-05-02T10:05:35.915Z,63.00
2019-05-02T10:08:08.098Z,62.60
2019-05-02T10:10:42.738Z,63.20
2019-05-02T10:13:12.180Z,62.90
2019-05-02T10:15:52.692Z,63.90
2019-05-02T10:40:33.340Z,64.60
2019-05-02T10:43:06.721Z,64.60
2019-05-02T10:45:38.093Z,65.50
2019-05-02T10:48:21.839Z,65.00
2019-05-02T10:50:42.389Z,65.70
2019-05-02T10:53:15.629Z,65.20
2019-05-02T10:55:44.843Z,65.00
2019-05-02T10:58:15.464Z,65.30
2019-05-02T11:00:45.854Z,65.00
2019-05-02T11:03:22.526Z,65.00
2019-05-02T11:05:57.955Z,65.50
2019-05-02T11:08:28.618Z,65.50
2019-05-02T11:10:59.053Z,65.70
2019-05-02T11:13:40.223Z,65.80
2019-05-02T11:16:32.169Z,66.00
2019-05-02T11:19:08.682Z,66.20
2019-05-02T11:21:46.754Z,65.70
2019-05-02T11:24:14.210Z,65.40
2019-05-02T11:26:44.575Z,66.30
2019-05-02T11:29:15.300Z,66.70
2019-05-02T11:31:46.176Z,66.50
2019-05-02T11:34:17.046Z,66.70
2019-05-02T11:39:52.591Z,67.00
2019-05-02T11:42:23.218Z,67.50
2019-05-02T11:44:53.021Z,67.30
2019-05-02T11:47:26.577Z,67.70
2019-05-02T11:49:56.104Z,68.00
2019-05-02T11:52:27.488Z,68.20
2019-05-02T11:54:58.932Z,68.70
2019-05-02T11:57:31.202Z,68.90
2019-05-02T12:00:04.951Z,69.30
2019-05-02T12:02:37.543Z,68.70
2019-05-02T12:05:26.537Z,68.50
2019-05-02T12:08:02.593Z,68.70
2019-05-02T12:10:34.807Z,69.00
2019-05-02T12:13:06.493Z,69.30
2019-05-02T12:15:34.754Z,69.80
2019-05-02T12:18:06.050Z,70.70
2019-05-02T12:20:36.928Z,71.50
2019-05-02T12:23:09.189Z,71.50
2019-05-02T12:25:39.934Z,71.80
2019-05-02T12:28:12.120Z,72.00
2019-05-02T12:30:42.912Z,72.00
2019-05-02T12:36:42.728Z,72.70
2019-05-02T12:39:14.965Z,73.70
2019-05-02T12:41:47.865Z,72.90
2019-05-02T12:44:19.667Z,73.00
2019-05-02T12:46:51.812Z,73.00
2019-05-02T12:49:27.508Z,73.10
2019-05-02T12:51:54.825Z,73.60
2019-05-02T12:54:25.484Z,73.70
2019-05-02T12:56:56.371Z,73.60
2019-05-02T12:59:26.955Z,73.60
2019-05-02T13:02:00.213Z,73.50
2019-05-02T13:04:32.264Z,73.00
2019-05-02T13:07:02.953Z,73.00
2019-05-02T13:12:24.220Z,72.50
2019-05-02T13:14:54.861Z,72.90
2019-05-02T13:17:56.761Z,73.10
2019-05-02T13:20:29.423Z,72.90
2019-05-02T13:23:07.441Z,72.80
2019-05-02T13:25:38.152Z,72.60
2019-05-02T13:28:09.440Z,72.40
2019-05-02T13:30:53.535Z,72.40
2019-05-02T13:33:27.384Z,72.20
2019-05-02T13:35:59.897Z,71.80
2019-05-02T13:38:30.557Z,71.50
2019-05-02T13:41:02.605Z,71.30
2019-05-02T13:43:35.348Z,71.20
2019-05-02T13:46:15.408Z,70.90
2019-05-02T13:48:46.072Z,70.50
2019-05-02T13:51:18.531Z,69.90
2019-05-02T13:53:53.913Z,69.90
2019-05-02T13:56:25.992Z,69.90
2019-05-02T13:58:56.657Z,70.10
2019-05-02T14:01:27.427Z,70.30
2019-05-02T14:04:05.504Z,70.70
2019-05-02T14:06:37.965Z,71.10
2019-05-02T14:09:22.594Z,71.70
2019-05-02T14:12:11.837Z,72.10
2019-05-02T14:14:42.667Z,72.40
2019-05-02T14:17:13.443Z,72.20
2019-05-02T14:19:45.585Z,71.70
2019-05-02T14:22:18.321Z,70.50
2019-05-02T14:24:48.974Z,70.20
2019-05-02T14:27:20.112Z,70.10
2019-05-02T14:29:52.382Z,70.30
2019-05-02T14:32:26.294Z,70.40
2019-05-02T14:34:56.532Z,70.50
2019-05-02T14:37:27.210Z,70.80
2019-05-02T14:40:02.102Z,70.80
2019-05-02T14:42:32.914Z,70.70
2019-05-02T14:45:13.166Z,70.70
2019-05-02T14:47:36.181Z,70.70
2019-05-02T14:50:20.778Z,70.80
2019-05-02T14:52:51.769Z,70.70
2019-05-02T14:55:25.638Z,70.50
2019-05-02T14:57:57.103Z,69.90
2019-05-02T15:03:28.400Z,69.60
2019-05-02T15:06:03.050Z,69.30
2019-05-02T15:08:36.674Z,69.00
2019-05-02T15:11:07.750Z,68.70
2019-05-02T15:13:41.025Z,68.90
2019-05-02T15:16:17.551Z,69.10
2019-05-02T15:18:47.708Z,69.20
2019-05-02T15:21:20.217Z,69.40
2019-05-02T15:23:54.370Z,69.80
2019-05-02T15:26:26.381Z,70.70
2019-05-02T15:29:06.494Z,70.90
2019-05-02T15:31:42.139Z,71.50
2019-05-02T15:34:14.534Z,75.20
2019-05-02T15:36:45.961Z,75.20
2019-05-02T15:41:48.905Z,78.40
2019-05-02T15:44:23.383Z,79.20
2019-05-02T15:46:53.675Z,80.70
2019-05-02T15:49:24.524Z,81.20
2019-05-02T15:51:55.311Z,82.00
2019-05-02T15:54:26.172Z,82.60
2019-05-02T15:57:02.885Z,83.20
2019-05-02T15:59:37.738Z,83.60
2019-05-02T16:02:22.971Z,85.00
2019-05-02T16:04:52.129Z,85.70
2019-05-02T16:07:23.909Z,85.80
2019-05-02T16:09:59.318Z,86.00
2019-05-02T16:12:27.072Z,86.00
2019-05-02T16:14:59.127Z,86.00
2019-05-02T16:17:30.151Z,86.00
2019-05-02T16:20:09.225Z,86.20
2019-05-02T16:22:38.323Z,86.20
2019-05-02T16:25:09.341Z,86.20
2019-05-02T16:27:47.119Z,86.20
2019-05-02T16:30:22.369Z,86.30
2019-05-02T16:32:54.954Z,86.10
2019-05-02T16:35:27.155Z,85.80
2019-05-02T16:38:22.111Z,85.70
2019-05-02T16:40:52.782Z,86.10
2019-05-02T16:43:24.783Z,85.90
2019-05-02T16:45:56.359Z,85.70
2019-05-02T16:48:32.386Z,85.90
2019-05-02T16:51:00.330Z,86.10
2019-05-02T16:53:33.404Z,86.20
2019-05-02T16:56:07.008Z,86.30
2019-05-02T16:58:37.946Z,86.40
2019-05-02T17:01:08.693Z,86.40
2019-05-02T17:03:39.262Z,86.30
2019-05-02T17:06:12.295Z,86.00
2019-05-02T17:09:04.274Z,85.70
2019-05-02T17:11:36.593Z,85.80
2019-05-02T17:14:12.085Z,85.90
2019-05-02T17:16:39.782Z,86.10
2019-05-02T17:19:12.247Z,86.10
2019-05-02T17:21:52.770Z,86.20
2019-05-02T17:24:17.431Z,86.40
2019-05-02T17:26:51.837Z,86.40
2019-05-02T17:29:22.894Z,86.00
2019-05-02T17:31:57.418Z,86.10
2019-05-02T17:34:30.809Z,86.20
2019-05-02T17:36:59.101Z,86.00
2019-05-02T17:39:30.152Z,86.00
2019-05-02T17:42:02.616Z,85.90
2019-05-02T17:44:32.911Z,85.40
2019-05-02T17:47:03.468Z,85.40
2019-05-02T17:49:36.629Z,85.00
2019-05-02T17:52:19.737Z,85.20
2019-05-02T17:55:06.440Z,85.00
2019-05-02T17:57:37.129Z,85.20
2019-05-02T18:00:16.681Z,85.40
2019-05-02T18:02:46.907Z,85.50
2019-05-02T18:05:17.520Z,85.30
2019-05-02T18:07:48.239Z,86.20
2019-05-02T18:10:22.437Z,85.20
2019-05-02T18:12:56.650Z,84.70
2019-05-02T18:15:23.092Z,84.50
2019-05-02T18:17:59.708Z,84.30
2019-05-02T18:20:28.244Z,84.30
2019-05-02T18:22:58.946Z,84.40
2019-05-02T18:25:29.662Z,84.60
2019-05-02T18:28:02.265Z,85.50
2019-05-02T18:30:32.684Z,85.00
2019-05-02T18:33:07.054Z,85.10
2019-05-02T18:35:37.315Z,85.20
2019-05-02T18:38:07.951Z,85.30
2019-05-02T18:40:38.675Z,85.50
2019-05-02T18:43:10.168Z,85.40
2019-05-02T18:45:42.467Z,85.20
2019-05-02T18:48:13.048Z,85.30
2019-05-02T18:50:47.602Z,85.50
2019-05-02T18:53:18.624Z,85.60
2019-05-02T18:55:51.707Z,85.50
2019-05-02T18:58:22.557Z,85.50
2019-05-02T19:00:53.389Z,85.80
2019-05-02T19:03:24.148Z,85.80
2019-05-02T19:05:57.168Z,86.00
2019-05-02T19:08:30.875Z,86.00
2019-05-02T19:11:07.596Z,85.80
2019-05-02T19:13:32.790Z,85.80
2019-05-02T19:16:03.127Z,85.80
2019-05-02T19:18:33.593Z,86.00
2019-05-02T19:21:04.725Z,86.10
2019-05-02T19:23:36.288Z,86.10
2019-05-02T19:26:15.006Z,86.10
2019-05-02T19:28:44.996Z,86.10
2019-05-02T19:31:36.713Z,86.00
2019-05-02T19:34:09.049Z,85.80
2019-05-02T19:36:41.649Z,85.70
2019-05-02T19:39:12.062Z,85.60
2019-05-02T19:41:43.881Z,85.50
2019-05-02T19:44:15.358Z,85.40
2019-05-02T19:46:46.271Z,84.90
2019-05-02T19:49:16.969Z,84.80
2019-05-02T19:51:50.471Z,84.50
2019-05-02T19:54:21.728Z,84.30
2019-05-02T19:56:52.324Z,84.30
2019-05-02T19:59:26.332Z,84.00
2019-05-02T20:01:57.020Z,83.80
2019-05-02T20:04:28.588Z,84.10
2019-05-02T20:06:59.086Z,84.50
2019-05-02T20:09:31.557Z,84.70
2019-05-02T20:12:07.642Z,85.00
2019-05-02T20:14:38.097Z,85.00
2019-05-02T20:17:08.435Z,85.30
2019-05-02T20:19:42.133Z,85.30
2019-05-02T20:22:14.069Z,85.50
2019-05-02T20:24:55.242Z,85.60
2019-05-02T20:27:27.931Z,85.90
2019-05-02T20:29:57.757Z,86.10
2019-05-02T20:32:28.291Z,86.30
2019-05-02T20:34:59.002Z,86.40
2019-05-02T20:37:29.791Z,86.60
2019-05-02T20:40:02.612Z,86.80
2019-05-02T20:42:32.654Z,87.00
2019-05-02T20:45:03.365Z,87.00
2019-05-02T20:47:34.056Z,87.10
2019-05-02T20:50:05.967Z,87.30
2019-05-02T20:52:37.171Z,87.30
2019-05-02T20:55:08.664Z,87.40
2019-05-02T20:57:39.312Z,87.50
2019-05-02T21:00:12.721Z,87.50
2019-05-02T21:02:43.523Z,87.40
2019-05-02T21:05:16.979Z,87.30
2019-05-02T21:07:49.280Z,87.00
2019-05-02T21:10:21.868Z,86.50
2019-05-02T21:12:52.727Z,86.40
2019-05-02T21:15:23.525Z,87.40
2019-05-02T21:17:54.173Z,86.60
2019-05-02T21:20:27.423Z,86.30
2019-05-02T21:22:57.985Z,86.20
2019-05-02T21:25:28.594Z,86.20
2019-05-02T21:27:59.373Z,86.20
2019-05-02T21:30:32.130Z,86.20
2019-05-02T21:33:03.052Z,86.20
2019-05-02T21:35:33.822Z,86.20
2019-05-02T21:38:04.461Z,86.30
2019-05-02T21:40:35.036Z,86.40
2019-05-02T21:43:05.858Z,86.40
2019-05-02T21:45:36.712Z,86.30
2019-05-02T21:48:07.422Z,86.40
2019-05-02T21:50:51.993Z,86.60
2019-05-02T21:53:27.203Z,86.60
2019-05-02T21:55:59.289Z,86.70
2019-05-02T21:58:30.000Z,86.80
2019-05-02T22:01:04.011Z,87.10
2019-05-02T22:03:35.030Z,87.00
2019-05-02T22:06:05.980Z,87.10
2019-05-02T22:08:36.684Z,87.30
2019-05-02T22:11:07.345Z,87.50
2019-05-02T22:13:39.296Z,87.80
2019-05-02T22:16:10.052Z,88.10
2019-05-02T22:18:42.614Z,88.20
2019-05-02T22:21:12.946Z,88.50
2019-05-02T22:23:43.633Z,88.70
2019-05-02T22:26:14.328Z,88.70
2019-05-02T22:28:45.489Z,89.10
2019-05-02T22:31:16.240Z,89.20
2019-05-02T22:33:47.313Z,89.40
2019-05-02T22:36:18.096Z,89.50
2019-05-02T22:38:53.050Z,89.60
2019-05-02T22:41:23.872Z,89.60
2019-05-02T22:43:54.543Z,90.00
2019-05-02T22:46:44.794Z,90.00
2019-05-02T22:49:16.453Z,90.00
2019-05-02T22:51:47.093Z,90.10
2019-05-02T22:54:26.982Z,90.20
2019-05-02T22:56:52.086Z,90.30
2019-05-02T22:59:23.938Z,90.40
2019-05-02T23:01:54.944Z,90.50
2019-05-02T23:04:25.785Z,90.50
2019-05-02T23:06:56.510Z,90.60
2019-05-02T23:09:27.152Z,90.70
2019-05-02T23:11:57.965Z,90.70
2019-05-02T23:14:28.663Z,90.70
2019-05-02T23:16:59.532Z,90.90
2019-05-02T23:19:31.693Z,90.80
2019-05-02T23:22:21.911Z,90.80
2019-05-02T23:24:56.997Z,90.90
2019-05-02T23:27:47.869Z,90.90
2019-05-02T23:30:22.571Z,91.00
2019-05-02T23:32:55.273Z,91.00
2019-05-02T23:35:32.016Z,91.10
2019-05-02T23:38:04.769Z,91.20
2019-05-02T23:40:36.742Z,91.20
2019-05-02T23:43:07.233Z,91.60
2019-05-02T23:45:37.676Z,91.30
2019-05-02T23:48:09.971Z,91.30
2019-05-02T23:50:40.013Z,91.40
2019-05-02T23:53:12.716Z,91.40
2019-05-02T23:55:43.354Z,91.40
2019-05-02T23:58:14.491Z,91.40
